sensor_id;sensor_type;location;lat;lon;timestamp;pressure;altitude;pressure_sealevel;temperature;humidity
24160;BME280;62385;41.594;23.808;2023-05-02T00:00:44;95938.50;;;8.31;81.08
24160;BME280;62385;41.594;23.808;2023-05-02T00:03:10;95945.31;;;7.77;82.38
24160;BME280;62385;41.594;23.808;2023-05-02T00:05:39;95950.63;;;7.58;82.31
24160;BME280;62385;41.594;23.808;2023-05-02T00:08:05;95949.91;;;7.75;82.90
24160;BME280;62385;41.594;23.808;2023-05-02T00:10:31;95940.63;;;7.52;82.83
24160;BME280;62385;41.594;23.808;2023-05-02T00:12:57;95938.25;;;8.15;81.65
24160;BME280;62385;41.594;23.808;2023-05-02T00:15:23;95928.97;;;8.01;82.19
24160;BME280;62385;41.594;23.808;2023-05-02T00:17:48;95925.88;;;7.69;82.42
24160;BME280;62385;41.594;23.808;2023-05-02T00:20:14;95944.19;;;7.80;82.78
24160;BME280;62385;41.594;23.808;2023-05-02T00:22:41;95948.38;;;7.73;82.69
24160;BME280;62385;41.594;23.808;2023-05-02T00:25:07;95944.78;;;7.64;83.18
24160;BME280;62385;41.594;23.808;2023-05-02T00:27:33;95954.50;;;7.64;82.83
24160;BME280;62385;41.594;23.808;2023-05-02T00:29:59;95958.38;;;7.88;83.09
24160;BME280;62385;41.594;23.808;2023-05-02T00:32:26;95946.66;;;7.91;82.16
24160;BME280;62385;41.594;23.808;2023-05-02T00:34:52;95956.03;;;7.76;82.95
24160;BME280;62385;41.594;23.808;2023-05-02T00:37:18;95952.09;;;7.99;82.33
24160;BME280;62385;41.594;23.808;2023-05-02T00:39:44;95957.84;;;7.75;82.39
24160;BME280;62385;41.594;23.808;2023-05-02T00:42:10;95955.19;;;7.75;82.44
24160;BME280;62385;41.594;23.808;2023-05-02T00:44:35;95967.56;;;7.75;82.46
24160;BME280;62385;41.594;23.808;2023-05-02T00:47:01;95964.25;;;7.54;82.10
24160;BME280;62385;41.594;23.808;2023-05-02T00:49:28;95961.34;;;7.57;82.27
24160;BME280;62385;41.594;23.808;2023-05-02T00:51:55;95962.72;;;7.51;81.75
24160;BME280;62385;41.594;23.808;2023-05-02T00:54:21;95971.22;;;7.35;82.34
24160;BME280;62385;41.594;23.808;2023-05-02T00:56:46;95965.81;;;7.27;82.74
24160;BME280;62385;41.594;23.808;2023-05-02T00:59:13;95978.84;;;7.77;81.08
24160;BME280;62385;41.594;23.808;2023-05-02T01:04:37;95969.28;;;7.57;81.43
24160;BME280;62385;41.594;23.808;2023-05-02T01:15:17;95961.06;;;7.21;82.24
24160;BME280;62385;41.594;23.808;2023-05-02T01:17:46;95969.53;;;7.63;81.28
24160;BME280;62385;41.594;23.808;2023-05-02T01:20:18;95966.22;;;7.52;81.39
24160;BME280;62385;41.594;23.808;2023-05-02T01:22:46;95961.91;;;7.51;81.73
24160;BME280;62385;41.594;23.808;2023-05-02T01:25:21;95969.53;;;7.82;80.80
24160;BME280;62385;41.594;23.808;2023-05-02T01:28:04;95963.88;;;8.05;80.22
24160;BME280;62385;41.594;23.808;2023-05-02T01:30:33;95963.47;;;8.09;80.64
24160;BME280;62385;41.594;23.808;2023-05-02T01:33:01;95961.75;;;8.18;80.77
24160;BME280;62385;41.594;23.808;2023-05-02T01:35:29;95955.34;;;8.20;80.72
24160;BME280;62385;41.594;23.808;2023-05-02T01:37:57;95954.88;;;7.98;80.85
24160;BME280;62385;41.594;23.808;2023-05-02T01:40:25;95958.16;;;8.09;80.86
24160;BME280;62385;41.594;23.808;2023-05-02T01:42:52;95955.06;;;8.23;80.70
24160;BME280;62385;41.594;23.808;2023-05-02T01:45:20;95959.88;;;8.47;81.14
24160;BME280;62385;41.594;23.808;2023-05-02T01:47:47;95963.53;;;8.37;80.49
24160;BME280;62385;41.594;23.808;2023-05-02T01:50:17;95961.69;;;8.47;80.35
24160;BME280;62385;41.594;23.808;2023-05-02T01:52:45;95961.78;;;8.08;82.33
24160;BME280;62385;41.594;23.808;2023-05-02T01:55:13;95954.31;;;8.41;82.48
24160;BME280;62385;41.594;23.808;2023-05-02T01:57:41;95959.31;;;8.07;85.16
24160;BME280;62385;41.594;23.808;2023-05-02T02:00:09;95949.69;;;8.06;84.67
24160;BME280;62385;41.594;23.808;2023-05-02T02:02:55;95957.59;;;8.15;84.16
24160;BME280;62385;41.594;23.808;2023-05-02T02:05:23;95957.41;;;7.80;83.65
24160;BME280;62385;41.594;23.808;2023-05-02T02:07:49;95950.84;;;7.84;85.50
24160;BME280;62385;41.594;23.808;2023-05-02T02:10:16;95952.63;;;8.03;84.48
24160;BME280;62385;41.594;23.808;2023-05-02T02:12:52;95942.22;;;8.28;83.66
24160;BME280;62385;41.594;23.808;2023-05-02T02:15:21;95952.03;;;8.09;84.60
24160;BME280;62385;41.594;23.808;2023-05-02T02:17:59;95960.34;;;8.33;84.58
24160;BME280;62385;41.594;23.808;2023-05-02T02:20:27;95957.78;;;8.41;84.99
24160;BME280;62385;41.594;23.808;2023-05-02T02:22:55;95956.97;;;8.41;84.79
24160;BME280;62385;41.594;23.808;2023-05-02T02:25:23;95959.78;;;8.29;85.02
24160;BME280;62385;41.594;23.808;2023-05-02T02:27:51;95964.53;;;8.36;85.63
24160;BME280;62385;41.594;23.808;2023-05-02T02:30:17;95958.09;;;8.38;84.58
24160;BME280;62385;41.594;23.808;2023-05-02T02:32:42;95959.84;;;8.10;85.31
24160;BME280;62385;41.594;23.808;2023-05-02T02:35:08;95958.72;;;8.13;84.92
24160;BME280;62385;41.594;23.808;2023-05-02T02:37:40;95962.38;;;7.93;85.98
24160;BME280;62385;41.594;23.808;2023-05-02T02:40:22;95973.13;;;7.81;86.44
24160;BME280;62385;41.594;23.808;2023-05-02T02:51:53;95958.34;;;7.98;85.87
24160;BME280;62385;41.594;23.808;2023-05-02T02:57:00;95970.63;;;7.80;85.30
24160;BME280;62385;41.594;23.808;2023-05-02T02:59:32;95962.88;;;7.59;86.20
24160;BME280;62385;41.594;23.808;2023-05-02T03:02:07;95965.88;;;7.93;85.32
24160;BME280;62385;41.594;23.808;2023-05-02T03:04:37;95963.78;;;7.87;84.08
24160;BME280;62385;41.594;23.808;2023-05-02T03:07:03;95962.50;;;8.10;84.59
24160;BME280;62385;41.594;23.808;2023-05-02T03:09:42;95970.84;;;8.06;84.29
24160;BME280;62385;41.594;23.808;2023-05-02T03:12:14;95968.63;;;8.11;84.97
24160;BME280;62385;41.594;23.808;2023-05-02T03:14:41;95967.88;;;8.28;84.03
24160;BME280;62385;41.594;23.808;2023-05-02T03:17:07;95971.06;;;8.22;83.82
24160;BME280;62385;41.594;23.808;2023-05-02T03:19:33;95967.06;;;8.18;83.99
24160;BME280;62385;41.594;23.808;2023-05-02T03:22:00;95972.19;;;8.29;84.07
24160;BME280;62385;41.594;23.808;2023-05-02T03:24:25;95980.94;;;8.39;83.70
24160;BME280;62385;41.594;23.808;2023-05-02T03:26:55;95978.03;;;8.23;84.37
24160;BME280;62385;41.594;23.808;2023-05-02T03:29:26;95981.09;;;8.28;84.98
24160;BME280;62385;41.594;23.808;2023-05-02T03:31:53;95974.06;;;8.00;85.11
24160;BME280;62385;41.594;23.808;2023-05-02T03:34:20;95976.75;;;7.90;85.88
24160;BME280;62385;41.594;23.808;2023-05-02T03:36:47;95984.63;;;8.09;85.46
24160;BME280;62385;41.594;23.808;2023-05-02T03:39:13;95988.94;;;8.01;85.52
24160;BME280;62385;41.594;23.808;2023-05-02T03:41:41;95994.25;;;7.91;86.32
24160;BME280;62385;41.594;23.808;2023-05-02T03:44:11;95982.69;;;8.02;85.26
24160;BME280;62385;41.594;23.808;2023-05-02T03:46:37;95997.59;;;7.93;85.80
24160;BME280;62385;41.594;23.808;2023-05-02T03:49:06;95990.88;;;8.08;85.21
24160;BME280;62385;41.594;23.808;2023-05-02T03:51:33;95998.72;;;7.91;85.22
24160;BME280;62385;41.594;23.808;2023-05-02T03:54:00;96004.31;;;7.78;85.40
24160;BME280;62385;41.594;23.808;2023-05-02T03:56:30;96008.34;;;7.63;86.10
24160;BME280;62385;41.594;23.808;2023-05-02T03:59:10;96013.91;;;7.50;86.42
24160;BME280;62385;41.594;23.808;2023-05-02T04:01:36;96000.66;;;7.88;84.01
24160;BME280;62385;41.594;23.808;2023-05-02T04:04:03;96000.72;;;8.35;84.02
24160;BME280;62385;41.594;23.808;2023-05-02T04:06:34;96000.97;;;8.42;82.70
24160;BME280;62385;41.594;23.808;2023-05-02T04:09:03;95998.81;;;8.55;83.22
24160;BME280;62385;41.594;23.808;2023-05-02T04:11:36;95998.50;;;8.30;82.37
24160;BME280;62385;41.594;23.808;2023-05-02T04:14:04;96007.81;;;8.25;82.66
24160;BME280;62385;41.594;23.808;2023-05-02T04:16:29;96011.72;;;8.30;83.33
24160;BME280;62385;41.594;23.808;2023-05-02T04:18:56;96002.94;;;8.40;83.05
24160;BME280;62385;41.594;23.808;2023-05-02T04:21:22;96000.09;;;8.51;83.66
24160;BME280;62385;41.594;23.808;2023-05-02T04:23:47;96009.34;;;8.27;82.98
24160;BME280;62385;41.594;23.808;2023-05-02T04:26:13;96011.75;;;8.58;82.14
24160;BME280;62385;41.594;23.808;2023-05-02T04:28:48;96005.81;;;8.46;82.38
24160;BME280;62385;41.594;23.808;2023-05-02T04:31:15;96003.47;;;8.43;82.53
24160;BME280;62385;41.594;23.808;2023-05-02T04:33:42;96011.69;;;7.65;85.12
24160;BME280;62385;41.594;23.808;2023-05-02T04:36:08;96017.09;;;7.82;85.63
24160;BME280;62385;41.594;23.808;2023-05-02T04:38:36;96018.63;;;7.56;85.86
24160;BME280;62385;41.594;23.808;2023-05-02T04:41:02;96018.19;;;7.89;85.84
24160;BME280;62385;41.594;23.808;2023-05-02T04:43:36;96012.44;;;8.13;84.30
24160;BME280;62385;41.594;23.808;2023-05-02T04:46:02;96010.63;;;8.14;83.55
24160;BME280;62385;41.594;23.808;2023-05-02T04:48:34;96015.47;;;8.28;83.84
24160;BME280;62385;41.594;23.808;2023-05-02T04:51:00;96016.16;;;8.40;82.62
24160;BME280;62385;41.594;23.808;2023-05-02T04:53:28;96015.75;;;8.25;83.84
24160;BME280;62385;41.594;23.808;2023-05-02T04:55:53;96031.78;;;8.14;83.97
24160;BME280;62385;41.594;23.808;2023-05-02T04:58:19;96030.81;;;8.05;84.07
24160;BME280;62385;41.594;23.808;2023-05-02T05:00:49;96028.22;;;7.86;85.08
24160;BME280;62385;41.594;23.808;2023-05-02T05:03:15;96026.25;;;7.88;83.94
24160;BME280;62385;41.594;23.808;2023-05-02T05:05:40;96028.66;;;8.47;82.49
24160;BME280;62385;41.594;23.808;2023-05-02T05:08:10;96030.66;;;8.16;83.73
24160;BME280;62385;41.594;23.808;2023-05-02T05:10:37;96036.09;;;8.15;83.10
24160;BME280;62385;41.594;23.808;2023-05-02T05:13:03;96035.94;;;8.26;83.27
24160;BME280;62385;41.594;23.808;2023-05-02T05:15:31;96026.25;;;8.54;82.13
24160;BME280;62385;41.594;23.808;2023-05-02T05:17:59;96017.34;;;8.82;80.99
24160;BME280;62385;41.594;23.808;2023-05-02T05:20:25;96024.03;;;9.13;80.55
24160;BME280;62385;41.594;23.808;2023-05-02T05:22:54;96021.84;;;9.26;79.35
24160;BME280;62385;41.594;23.808;2023-05-02T05:25:21;96022.25;;;9.32;79.52
24160;BME280;62385;41.594;23.808;2023-05-02T05:27:48;96018.09;;;9.47;79.39
24160;BME280;62385;41.594;23.808;2023-05-02T05:30:14;96027.50;;;9.14;79.54
24160;BME280;62385;41.594;23.808;2023-05-02T05:32:41;96020.19;;;9.25;79.35
24160;BME280;62385;41.594;23.808;2023-05-02T05:35:07;96024.81;;;9.41;78.79
24160;BME280;62385;41.594;23.808;2023-05-02T05:37:34;96022.69;;;9.45;79.09
24160;BME280;62385;41.594;23.808;2023-05-02T05:40:06;96029.28;;;9.41;78.84
24160;BME280;62385;41.594;23.808;2023-05-02T05:42:33;96027.63;;;9.40;78.66
24160;BME280;62385;41.594;23.808;2023-05-02T05:45:02;96018.63;;;9.50;79.42
24160;BME280;62385;41.594;23.808;2023-05-02T05:47:28;96025.41;;;9.53;78.76
24160;BME280;62385;41.594;23.808;2023-05-02T05:49:54;96023.75;;;9.87;77.13
24160;BME280;62385;41.594;23.808;2023-05-02T05:52:22;96024.13;;;9.92;76.57
24160;BME280;62385;41.594;23.808;2023-05-02T05:54:52;96025.59;;;10.12;75.87
24160;BME280;62385;41.594;23.808;2023-05-02T05:57:20;96026.78;;;9.92;75.89
24160;BME280;62385;41.594;23.808;2023-05-02T05:59:45;96021.84;;;9.97;76.25
24160;BME280;62385;41.594;23.808;2023-05-02T06:02:12;96025.88;;;10.27;75.60
24160;BME280;62385;41.594;23.808;2023-05-02T06:04:39;96030.47;;;10.17;76.07
24160;BME280;62385;41.594;23.808;2023-05-02T06:07:04;96023.38;;;10.43;76.00
24160;BME280;62385;41.594;23.808;2023-05-02T06:09:30;96015.56;;;10.42;75.51
24160;BME280;62385;41.594;23.808;2023-05-02T06:11:56;96019.59;;;10.54;76.39
24160;BME280;62385;41.594;23.808;2023-05-02T06:14:22;96021.41;;;10.53;75.90
24160;BME280;62385;41.594;23.808;2023-05-02T06:16:50;96010.47;;;10.56;76.90
24160;BME280;62385;41.594;23.808;2023-05-02T06:19:34;96023.28;;;10.95;75.86
24160;BME280;62385;41.594;23.808;2023-05-02T06:22:15;96019.78;;;10.94;76.12
24160;BME280;62385;41.594;23.808;2023-05-02T06:24:50;96020.88;;;10.76;76.88
24160;BME280;62385;41.594;23.808;2023-05-02T06:27:21;96025.16;;;10.69;76.49
24160;BME280;62385;41.594;23.808;2023-05-02T06:29:58;96019.00;;;11.02;75.55
24160;BME280;62385;41.594;23.808;2023-05-02T06:32:36;96007.28;;;11.21;73.27
24160;BME280;62385;41.594;23.808;2023-05-02T06:39:07;96015.28;;;11.29;74.22
24160;BME280;62385;41.594;23.808;2023-05-02T06:47:51;96006.13;;;10.81;73.84
24160;BME280;62385;41.594;23.808;2023-05-02T07:01:25;95992.38;;;11.60;75.91
24160;BME280;62385;41.594;23.808;2023-05-02T07:04:45;95995.09;;;11.76;75.33
24160;BME280;62385;41.594;23.808;2023-05-02T07:07:13;95993.75;;;11.72;75.81
24160;BME280;62385;41.594;23.808;2023-05-02T07:09:46;95993.44;;;11.99;76.57
24160;BME280;62385;41.594;23.808;2023-05-02T07:12:11;95992.47;;;11.92;75.79
24160;BME280;62385;41.594;23.808;2023-05-02T07:14:37;95997.41;;;12.20;75.04
24160;BME280;62385;41.594;23.808;2023-05-02T07:17:03;95993.28;;;12.17;73.49
24160;BME280;62385;41.594;23.808;2023-05-02T07:19:29;95998.09;;;11.89;74.59
24160;BME280;62385;41.594;23.808;2023-05-02T07:21:55;95992.75;;;12.06;73.96
24160;BME280;62385;41.594;23.808;2023-05-02T07:24:21;96003.72;;;12.19;74.37
24160;BME280;62385;41.594;23.808;2023-05-02T07:26:47;95993.44;;;12.16;73.70
24160;BME280;62385;41.594;23.808;2023-05-02T07:29:12;95995.06;;;12.33;73.72
24160;BME280;62385;41.594;23.808;2023-05-02T07:31:38;95994.50;;;12.70;73.87
24160;BME280;62385;41.594;23.808;2023-05-02T07:34:04;95987.63;;;12.83;71.86
24160;BME280;62385;41.594;23.808;2023-05-02T07:36:29;95994.31;;;12.79;71.62
24160;BME280;62385;41.594;23.808;2023-05-02T07:39:13;95991.28;;;13.21;70.41
24160;BME280;62385;41.594;23.808;2023-05-02T07:41:39;95987.47;;;13.24;70.93
24160;BME280;62385;41.594;23.808;2023-05-02T07:44:05;95983.44;;;13.28;69.69
24160;BME280;62385;41.594;23.808;2023-05-02T07:46:31;95991.28;;;13.21;69.96
24160;BME280;62385;41.594;23.808;2023-05-02T07:48:56;95988.72;;;13.36;70.76
24160;BME280;62385;41.594;23.808;2023-05-02T07:51:22;95979.09;;;13.58;69.64
24160;BME280;62385;41.594;23.808;2023-05-02T07:53:49;95982.00;;;13.94;69.65
24160;BME280;62385;41.594;23.808;2023-05-02T07:56:17;95982.69;;;13.87;68.42
24160;BME280;62385;41.594;23.808;2023-05-02T07:58:42;95990.63;;;13.96;68.99
24160;BME280;62385;41.594;23.808;2023-05-02T08:01:10;95984.75;;;14.23;68.38
24160;BME280;62385;41.594;23.808;2023-05-02T08:03:35;95984.66;;;14.31;66.66
24160;BME280;62385;41.594;23.808;2023-05-02T08:06:02;95992.47;;;14.55;67.39
24160;BME280;62385;41.594;23.808;2023-05-02T08:08:28;95987.50;;;14.52;66.72
24160;BME280;62385;41.594;23.808;2023-05-02T08:10:54;95990.53;;;14.64;65.55
24160;BME280;62385;41.594;23.808;2023-05-02T08:13:19;95978.28;;;14.84;64.92
24160;BME280;62385;41.594;23.808;2023-05-02T08:15:45;95971.03;;;14.78;61.90
24160;BME280;62385;41.594;23.808;2023-05-02T08:18:11;95968.78;;;14.67;59.21
24160;BME280;62385;41.594;23.808;2023-05-02T08:20:36;95978.31;;;14.69;58.95
24160;BME280;62385;41.594;23.808;2023-05-02T08:23:02;95967.22;;;15.02;58.57
24160;BME280;62385;41.594;23.808;2023-05-02T08:25:28;95970.63;;;15.10;58.61
24160;BME280;62385;41.594;23.808;2023-05-02T08:27:54;95969.72;;;14.89;57.17
24160;BME280;62385;41.594;23.808;2023-05-02T08:30:20;95964.94;;;15.35;57.62
24160;BME280;62385;41.594;23.808;2023-05-02T08:32:45;95961.88;;;15.38;53.11
24160;BME280;62385;41.594;23.808;2023-05-02T08:35:12;95960.84;;;15.53;51.29
24160;BME280;62385;41.594;23.808;2023-05-02T08:37:38;95963.72;;;15.52;50.39
24160;BME280;62385;41.594;23.808;2023-05-02T08:40:04;95957.06;;;16.11;51.27
24160;BME280;62385;41.594;23.808;2023-05-02T08:42:32;95962.75;;;16.51;52.83
24160;BME280;62385;41.594;23.808;2023-05-02T08:44:59;95961.25;;;16.42;51.44
24160;BME280;62385;41.594;23.808;2023-05-02T08:47:26;95960.59;;;16.12;53.05
24160;BME280;62385;41.594;23.808;2023-05-02T08:49:52;95961.38;;;15.85;53.61
24160;BME280;62385;41.594;23.808;2023-05-02T08:52:24;95957.56;;;15.94;55.66
24160;BME280;62385;41.594;23.808;2023-05-02T08:54:50;95954.94;;;16.28;54.38
24160;BME280;62385;41.594;23.808;2023-05-02T08:57:17;95957.63;;;15.79;54.71
24160;BME280;62385;41.594;23.808;2023-05-02T08:59:42;95950.81;;;16.26;53.67
24160;BME280;62385;41.594;23.808;2023-05-02T09:05:00;95948.13;;;16.53;51.90
24160;BME280;62385;41.594;23.808;2023-05-02T09:07:44;95945.56;;;16.67;52.49
24160;BME280;62385;41.594;23.808;2023-05-02T09:10:13;95945.75;;;16.65;52.36
24160;BME280;62385;41.594;23.808;2023-05-02T09:12:39;95934.69;;;16.81;52.55
24160;BME280;62385;41.594;23.808;2023-05-02T09:15:13;95933.91;;;16.87;51.39
24160;BME280;62385;41.594;23.808;2023-05-02T09:17:44;95937.28;;;17.02;50.54
24160;BME280;62385;41.594;23.808;2023-05-02T09:20:14;95928.81;;;17.53;49.75
24160;BME280;62385;41.594;23.808;2023-05-02T09:22:50;95923.53;;;17.79;48.14
24160;BME280;62385;41.594;23.808;2023-05-02T09:25:18;95928.50;;;18.15;47.74
24160;BME280;62385;41.594;23.808;2023-05-02T09:27:54;95930.78;;;17.25;46.31
24160;BME280;62385;41.594;23.808;2023-05-02T09:30:24;95921.59;;;16.58;47.94
24160;BME280;62385;41.594;23.808;2023-05-02T09:32:51;95912.00;;;17.18;46.78
24160;BME280;62385;41.594;23.808;2023-05-02T09:35:18;95905.19;;;17.22;46.95
24160;BME280;62385;41.594;23.808;2023-05-02T09:37:55;95907.66;;;17.17;46.68
24160;BME280;62385;41.594;23.808;2023-05-02T09:40:23;95900.72;;;17.42;46.92
24160;BME280;62385;41.594;23.808;2023-05-02T09:42:50;95893.13;;;17.66;44.71
24160;BME280;62385;41.594;23.808;2023-05-02T09:45:24;95892.50;;;17.77;46.59
24160;BME280;62385;41.594;23.808;2023-05-02T09:47:50;95883.63;;;17.63;47.58
24160;BME280;62385;41.594;23.808;2023-05-02T09:50:37;95879.75;;;18.05;49.06
24160;BME280;62385;41.594;23.808;2023-05-02T09:53:07;95881.41;;;17.93;46.38
24160;BME280;62385;41.594;23.808;2023-05-02T09:55:34;95876.00;;;18.19;47.44
24160;BME280;62385;41.594;23.808;2023-05-02T09:58:00;95878.88;;;18.11;44.78
24160;BME280;62385;41.594;23.808;2023-05-02T10:00:43;95880.84;;;18.81;44.93
24160;BME280;62385;41.594;23.808;2023-05-02T10:03:09;95877.47;;;18.99;44.48
24160;BME280;62385;41.594;23.808;2023-05-02T10:05:36;95868.22;;;18.82;42.74
24160;BME280;62385;41.594;23.808;2023-05-02T10:08:04;95867.72;;;18.34;43.15
24160;BME280;62385;41.594;23.808;2023-05-02T10:10:32;95869.28;;;18.74;43.13
24160;BME280;62385;41.594;23.808;2023-05-02T10:13:02;95864.34;;;18.52;40.38
24160;BME280;62385;41.594;23.808;2023-05-02T10:15:30;95864.91;;;18.86;42.71
24160;BME280;62385;41.594;23.808;2023-05-02T10:17:58;95847.06;;;19.36;38.92
24160;BME280;62385;41.594;23.808;2023-05-02T10:20:30;95858.09;;;18.77;38.49
24160;BME280;62385;41.594;23.808;2023-05-02T10:23:00;95866.59;;;19.63;39.54
24160;BME280;62385;41.594;23.808;2023-05-02T10:25:29;95861.94;;;19.39;39.65
24160;BME280;62385;41.594;23.808;2023-05-02T10:27:58;95861.78;;;18.96;40.71
24160;BME280;62385;41.594;23.808;2023-05-02T10:30:25;95860.00;;;19.15;39.88
24160;BME280;62385;41.594;23.808;2023-05-02T10:32:51;95849.00;;;18.78;41.31
24160;BME280;62385;41.594;23.808;2023-05-02T10:35:20;95843.91;;;19.08;42.73
24160;BME280;62385;41.594;23.808;2023-05-02T10:37:46;95832.38;;;19.95;39.02
24160;BME280;62385;41.594;23.808;2023-05-02T10:40:14;95832.38;;;19.95;38.82
24160;BME280;62385;41.594;23.808;2023-05-02T10:42:45;95826.31;;;20.00;38.80
24160;BME280;62385;41.594;23.808;2023-05-02T10:48:13;95827.38;;;19.74;37.36
24160;BME280;62385;41.594;23.808;2023-05-02T10:50:50;95836.69;;;19.40;39.37
24160;BME280;62385;41.594;23.808;2023-05-02T10:53:26;95825.03;;;19.53;37.57
24160;BME280;62385;41.594;23.808;2023-05-02T10:58:40;95817.72;;;19.60;37.23
24160;BME280;62385;41.594;23.808;2023-05-02T11:03:58;95813.97;;;19.29;34.21
24160;BME280;62385;41.594;23.808;2023-05-02T11:07:15;95817.50;;;18.92;34.90
24160;BME280;62385;41.594;23.808;2023-05-02T11:11:49;95815.31;;;18.69;33.85
24160;BME280;62385;41.594;23.808;2023-05-02T11:19:29;95787.66;;;20.12;35.89
24160;BME280;62385;41.594;23.808;2023-05-02T11:24:49;95790.00;;;19.21;33.76
24160;BME280;62385;41.594;23.808;2023-05-02T11:30:04;95793.03;;;19.00;33.92
24160;BME280;62385;41.594;23.808;2023-05-02T11:35:30;95778.13;;;19.67;35.15
24160;BME280;62385;41.594;23.808;2023-05-02T11:38:08;95773.81;;;20.63;35.48
24160;BME280;62385;41.594;23.808;2023-05-02T11:40:34;95765.03;;;20.68;34.82
24160;BME280;62385;41.594;23.808;2023-05-02T11:43:07;95762.75;;;20.83;35.53
24160;BME280;62385;41.594;23.808;2023-05-02T11:45:36;95772.16;;;21.10;35.46
24160;BME280;62385;41.594;23.808;2023-05-02T11:48:07;95766.53;;;21.42;34.72
24160;BME280;62385;41.594;23.808;2023-05-02T11:50:40;95757.97;;;20.85;34.51
24160;BME280;62385;41.594;23.808;2023-05-02T11:53:09;95755.84;;;19.53;32.51
24160;BME280;62385;41.594;23.808;2023-05-02T11:55:35;95748.84;;;19.95;32.73
24160;BME280;62385;41.594;23.808;2023-05-02T11:58:00;95738.84;;;20.39;32.31
24160;BME280;62385;41.594;23.808;2023-05-02T12:00:26;95740.91;;;20.73;34.12
24160;BME280;62385;41.594;23.808;2023-05-02T12:02:53;95733.59;;;20.44;33.42
24160;BME280;62385;41.594;23.808;2023-05-02T12:05:26;95723.34;;;20.82;32.14
24160;BME280;62385;41.594;23.808;2023-05-02T12:07:53;95726.00;;;20.16;32.87
24160;BME280;62385;41.594;23.808;2023-05-02T12:10:19;95726.44;;;19.95;32.99
24160;BME280;62385;41.594;23.808;2023-05-02T12:12:44;95715.91;;;20.66;33.76
24160;BME280;62385;41.594;23.808;2023-05-02T12:15:11;95718.75;;;21.54;31.83
24160;BME280;62385;41.594;23.808;2023-05-02T12:17:42;95711.69;;;20.70;31.58
24160;BME280;62385;41.594;23.808;2023-05-02T12:20:09;95719.00;;;21.11;31.32
24160;BME280;62385;41.594;23.808;2023-05-02T12:22:35;95719.84;;;20.09;30.73
24160;BME280;62385;41.594;23.808;2023-05-02T12:25:03;95707.22;;;20.94;30.41
24160;BME280;62385;41.594;23.808;2023-05-02T12:27:30;95712.22;;;21.61;31.89
24160;BME280;62385;41.594;23.808;2023-05-02T12:29:57;95711.31;;;21.38;32.09
24160;BME280;62385;41.594;23.808;2023-05-02T12:32:28;95706.63;;;21.33;33.29
24160;BME280;62385;41.594;23.808;2023-05-02T12:34:54;95711.13;;;21.09;32.81
24160;BME280;62385;41.594;23.808;2023-05-02T12:37:25;95709.13;;;20.45;31.61
24160;BME280;62385;41.594;23.808;2023-05-02T12:39:52;95706.25;;;21.30;33.73
24160;BME280;62385;41.594;23.808;2023-05-02T12:42:23;95695.53;;;21.11;30.53
24160;BME280;62385;41.594;23.808;2023-05-02T12:44:50;95687.19;;;22.01;32.96
24160;BME280;62385;41.594;23.808;2023-05-02T12:47:21;95671.28;;;21.58;30.62
24160;BME280;62385;41.594;23.808;2023-05-02T12:49:51;95678.69;;;21.74;31.15
24160;BME280;62385;41.594;23.808;2023-05-02T12:52:18;95674.06;;;20.45;30.22
24160;BME280;62385;41.594;23.808;2023-05-02T12:54:43;95671.22;;;20.40;29.62
24160;BME280;62385;41.594;23.808;2023-05-02T12:57:10;95664.78;;;20.41;29.43
24160;BME280;62385;41.594;23.808;2023-05-02T12:59:36;95654.63;;;20.96;30.33
24160;BME280;62385;41.594;23.808;2023-05-02T13:02:02;95647.00;;;22.44;30.05
24160;BME280;62385;41.594;23.808;2023-05-02T13:04:38;95637.25;;;21.92;30.48
24160;BME280;62385;41.594;23.808;2023-05-02T13:07:05;95656.28;;;21.74;29.37
24160;BME280;62385;41.594;23.808;2023-05-02T13:09:31;95657.28;;;20.85;27.71
24160;BME280;62385;41.594;23.808;2023-05-02T13:11:57;95649.53;;;22.23;28.61
24160;BME280;62385;41.594;23.808;2023-05-02T13:14:28;95654.75;;;21.01;27.47
24160;BME280;62385;41.594;23.808;2023-05-02T13:16:53;95658.97;;;21.27;28.63
24160;BME280;62385;41.594;23.808;2023-05-02T13:19:22;95666.22;;;21.27;29.61
24160;BME280;62385;41.594;23.808;2023-05-02T13:21:48;95669.44;;;22.05;28.27
24160;BME280;62385;41.594;23.808;2023-05-02T13:24:14;95653.06;;;22.91;28.91
24160;BME280;62385;41.594;23.808;2023-05-02T13:26:41;95659.44;;;21.59;28.05
24160;BME280;62385;41.594;23.808;2023-05-02T13:29:07;95659.56;;;22.50;30.08
24160;BME280;62385;41.594;23.808;2023-05-02T13:31:36;95661.84;;;22.30;28.03
24160;BME280;62385;41.594;23.808;2023-05-02T13:34:05;95649.09;;;22.02;28.66
24160;BME280;62385;41.594;23.808;2023-05-02T13:36:31;95658.16;;;21.96;29.67
24160;BME280;62385;41.594;23.808;2023-05-02T13:38:57;95650.31;;;22.75;28.05
24160;BME280;62385;41.594;23.808;2023-05-02T13:41:22;95646.59;;;23.09;28.35
24160;BME280;62385;41.594;23.808;2023-05-02T13:43:49;95642.50;;;23.57;28.75
24160;BME280;62385;41.594;23.808;2023-05-02T13:46:14;95641.13;;;23.54;30.14
24160;BME280;62385;41.594;23.808;2023-05-02T13:48:40;95639.47;;;23.70;30.34
24160;BME280;62385;41.594;23.808;2023-05-02T13:51:06;95639.41;;;23.48;30.43
24160;BME280;62385;41.594;23.808;2023-05-02T13:53:32;95645.50;;;23.55;29.87
24160;BME280;62385;41.594;23.808;2023-05-02T13:55:57;95626.19;;;23.35;29.73
24160;BME280;62385;41.594;23.808;2023-05-02T13:58:23;95631.69;;;23.57;29.34
24160;BME280;62385;41.594;23.808;2023-05-02T14:00:49;95633.66;;;23.44;30.13
24160;BME280;62385;41.594;23.808;2023-05-02T14:03:16;95643.56;;;23.89;29.01
24160;BME280;62385;41.594;23.808;2023-05-02T14:05:41;95640.44;;;23.14;29.60
24160;BME280;62385;41.594;23.808;2023-05-02T14:08:11;95639.03;;;23.78;29.47
24160;BME280;62385;41.594;23.808;2023-05-02T14:10:37;95647.03;;;23.18;29.02
24160;BME280;62385;41.594;23.808;2023-05-02T14:13:03;95638.44;;;23.54;28.71